sensor_id;sensor_type;location;lat;lon;timestamp;P1;durP1;ratioP1;P2;durP2;ratioP2
12900;SDS011;6518;50.930;5.344;2023-07-31T00:00:53;9.30;;;4.10;;
12900;SDS011;6518;50.930;5.344;2023-07-31T00:03:23;12.85;;;4.47;;
12900;SDS011;6518;50.930;5.344;2023-07-31T00:05:50;10.43;;;3.97;;
12900;SDS011;6518;50.930;5.344;2023-07-31T00:08:19;9.13;;;4.28;;
12900;SDS011;6518;50.930;5.344;2023-07-31T00:10:46;9.18;;;4.35;;
12900;SDS011;6518;50.930;5.344;2023-07-31T00:13:13;8.63;;;3.72;;
12900;SDS011;6518;50.930;5.344;2023-07-31T00:15:40;13.10;;;4.40;;
12900;SDS011;6518;50.930;5.344;2023-07-31T00:18:07;12.07;;;4.63;;
12900;SDS011;6518;50.930;5.344;2023-07-31T00:20:34;11.27;;;4.53;;
12900;SDS011;6518;50.930;5.344;2023-07-31T00:23:01;12.48;;;4.43;;
12900;SDS011;6518;50.930;5.344;2023-07-31T00:25:30;8.98;;;3.40;;
12900;SDS011;6518;50.930;5.344;2023-07-31T00:27:57;10.93;;;4.45;;
12900;SDS011;6518;50.930;5.344;2023-07-31T00:30:24;12.77;;;4.43;;
12900;SDS011;6518;50.930;5.344;2023-07-31T00:32:56;9.30;;;3.55;;
12900;SDS011;6518;50.930;5.344;2023-07-31T00:35:38;11.25;;;4.25;;
12900;SDS011;6518;50.930;5.344;2023-07-31T00:38:08;8.23;;;3.70;;
12900;SDS011;6518;50.930;5.344;2023-07-31T00:40:35;9.85;;;3.85;;
12900;SDS011;6518;50.930;5.344;2023-07-31T00:43:06;13.32;;;4.50;;
12900;SDS011;6518;50.930;5.344;2023-07-31T00:45:35;8.98;;;4.43;;
12900;SDS011;6518;50.930;5.344;2023-07-31T00:48:03;8.93;;;3.88;;
12900;SDS011;6518;50.930;5.344;2023-07-31T00:50:32;11.70;;;4.68;;
12900;SDS011;6518;50.930;5.344;2023-07-31T00:53:03;14.88;;;5.25;;
12900;SDS011;6518;50.930;5.344;2023-07-31T00:55:31;11.00;;;4.25;;
12900;SDS011;6518;50.930;5.344;2023-07-31T00:57:58;14.75;;;4.82;;
12900;SDS011;6518;50.930;5.344;2023-07-31T01:00:25;10.43;;;4.10;;
12900;SDS011;6518;50.930;5.344;2023-07-31T01:02:53;8.85;;;4.32;;
12900;SDS011;6518;50.930;5.344;2023-07-31T01:05:23;11.18;;;4.15;;
12900;SDS011;6518;50.930;5.344;2023-07-31T01:08:02;9.77;;;4.47;;
12900;SDS011;6518;50.930;5.344;2023-07-31T01:10:37;9.57;;;4.15;;
12900;SDS011;6518;50.930;5.344;2023-07-31T01:13:21;11.27;;;4.22;;
12900;SDS011;6518;50.930;5.344;2023-07-31T01:15:48;11.07;;;4.53;;
12900;SDS011;6518;50.930;5.344;2023-07-31T01:18:17;12.88;;;4.45;;
12900;SDS011;6518;50.930;5.344;2023-07-31T01:20:49;11.98;;;4.63;;
12900;SDS011;6518;50.930;5.344;2023-07-31T01:23:30;8.18;;;3.88;;
12900;SDS011;6518;50.930;5.344;2023-07-31T01:26:27;10.13;;;4.70;;
12900;SDS011;6518;50.930;5.344;2023-07-31T01:29:00;10.65;;;4.25;;
12900;SDS011;6518;50.930;5.344;2023-07-31T01:31:30;10.05;;;4.03;;
12900;SDS011;6518;50.930;5.344;2023-07-31T01:34:01;9.63;;;3.92;;
12900;SDS011;6518;50.930;5.344;2023-07-31T01:36:30;12.60;;;4.53;;
12900;SDS011;6518;50.930;5.344;2023-07-31T01:38:58;10.68;;;4.00;;
12900;SDS011;6518;50.930;5.344;2023-07-31T01:41:27;7.68;;;4.18;;
12900;SDS011;6518;50.930;5.344;2023-07-31T01:43:57;8.38;;;4.90;;
12900;SDS011;6518;50.930;5.344;2023-07-31T01:46:24;10.07;;;4.75;;
12900;SDS011;6518;50.930;5.344;2023-07-31T01:48:53;11.05;;;4.50;;
12900;SDS011;6518;50.930;5.344;2023-07-31T01:51:21;10.43;;;4.57;;
12900;SDS011;6518;50.930;5.344;2023-07-31T01:53:48;13.02;;;4.78;;
12900;SDS011;6518;50.930;5.344;2023-07-31T01:56:18;8.88;;;4.80;;
12900;SDS011;6518;50.930;5.344;2023-07-31T01:58:46;13.95;;;4.47;;
12900;SDS011;6518;50.930;5.344;2023-07-31T02:01:13;9.48;;;4.57;;
12900;SDS011;6518;50.930;5.344;2023-07-31T02:03:43;9.10;;;4.45;;
12900;SDS011;6518;50.930;5.344;2023-07-31T02:06:17;11.48;;;5.03;;
12900;SDS011;6518;50.930;5.344;2023-07-31T02:08:45;13.55;;;5.38;;
12900;SDS011;6518;50.930;5.344;2023-07-31T02:11:12;11.82;;;4.80;;
12900;SDS011;6518;50.930;5.344;2023-07-31T02:13:40;10.15;;;4.30;;
12900;SDS011;6518;50.930;5.344;2023-07-31T02:16:11;11.00;;;4.70;;
12900;SDS011;6518;50.930;5.344;2023-07-31T02:18:40;10.55;;;4.57;;
12900;SDS011;6518;50.930;5.344;2023-07-31T02:21:09;10.55;;;4.38;;
12900;SDS011;6518;50.930;5.344;2023-07-31T02:23:36;11.45;;;4.80;;
12900;SDS011;6518;50.930;5.344;2023-07-31T02:26:04;11.65;;;4.35;;
12900;SDS011;6518;50.930;5.344;2023-07-31T02:28:31;11.35;;;5.15;;
12900;SDS011;6518;50.930;5.344;2023-07-31T02:30:58;15.38;;;5.63;;
12900;SDS011;6518;50.930;5.344;2023-07-31T02:33:28;11.48;;;4.65;;
12900;SDS011;6518;50.930;5.344;2023-07-31T02:35:57;11.23;;;5.13;;
12900;SDS011;6518;50.930;5.344;2023-07-31T02:38:29;12.65;;;5.20;;
12900;SDS011;6518;50.930;5.344;2023-07-31T02:40:56;10.88;;;4.80;;
12900;SDS011;6518;50.930;5.344;2023-07-31T02:43:23;11.07;;;5.18;;
12900;SDS011;6518;50.930;5.344;2023-07-31T02:45:51;12.43;;;4.60;;
12900;SDS011;6518;50.930;5.344;2023-07-31T02:48:19;10.48;;;4.70;;
12900;SDS011;6518;50.930;5.344;2023-07-31T02:50:48;8.93;;;5.00;;
12900;SDS011;6518;50.930;5.344;2023-07-31T02:53:19;8.38;;;4.50;;
12900;SDS011;6518;50.930;5.344;2023-07-31T02:55:48;11.50;;;5.00;;
12900;SDS011;6518;50.930;5.344;2023-07-31T02:58:15;9.43;;;4.80;;
12900;SDS011;6518;50.930;5.344;2023-07-31T03:00:42;9.32;;;4.45;;
12900;SDS011;6518;50.930;5.344;2023-07-31T03:03:10;9.63;;;4.78;;
12900;SDS011;6518;50.930;5.344;2023-07-31T03:05:37;8.73;;;4.57;;
12900;SDS011;6518;50.930;5.344;2023-07-31T03:08:05;8.40;;;4.75;;
12900;SDS011;6518;50.930;5.344;2023-07-31T03:10:33;8.02;;;5.18;;
12900;SDS011;6518;50.930;5.344;2023-07-31T03:13:00;10.48;;;4.57;;
12900;SDS011;6518;50.930;5.344;2023-07-31T03:15:27;12.82;;;5.18;;
12900;SDS011;6518;50.930;5.344;2023-07-31T03:17:54;9.68;;;5.18;;
12900;SDS011;6518;50.930;5.344;2023-07-31T03:20:21;10.10;;;4.75;;
12900;SDS011;6518;50.930;5.344;2023-07-31T03:22:48;10.70;;;5.05;;
12900;SDS011;6518;50.930;5.344;2023-07-31T03:25:17;8.55;;;5.22;;
12900;SDS011;6518;50.930;5.344;2023-07-31T03:27:44;8.05;;;4.45;;
12900;SDS011;6518;50.930;5.344;2023-07-31T03:30:11;9.73;;;5.03;;
12900;SDS011;6518;50.930;5.344;2023-07-31T03:32:38;8.35;;;4.57;;
12900;SDS011;6518;50.930;5.344;2023-07-31T03:35:05;11.07;;;5.22;;
12900;SDS011;6518;50.930;5.344;2023-07-31T03:37:33;6.03;;;4.28;;
12900;SDS011;6518;50.930;5.344;2023-07-31T03:40:00;7.40;;;4.65;;
12900;SDS011;6518;50.930;5.344;2023-07-31T03:42:29;7.97;;;4.30;;
12900;SDS011;6518;50.930;5.344;2023-07-31T03:44:56;8.68;;;4.68;;
12900;SDS011;6518;50.930;5.344;2023-07-31T03:47:22;10.82;;;4.78;;
12900;SDS011;6518;50.930;5.344;2023-07-31T03:49:50;7.85;;;4.80;;
12900;SDS011;6518;50.930;5.344;2023-07-31T03:52:17;9.48;;;4.70;;
12900;SDS011;6518;50.930;5.344;2023-07-31T03:54:44;9.48;;;4.65;;
12900;SDS011;6518;50.930;5.344;2023-07-31T03:57:11;7.28;;;4.47;;
12900;SDS011;6518;50.930;5.344;2023-07-31T03:59:39;8.00;;;4.13;;
12900;SDS011;6518;50.930;5.344;2023-07-31T04:02:06;9.15;;;4.60;;
12900;SDS011;6518;50.930;5.344;2023-07-31T04:04:33;5.95;;;4.30;;
12900;SDS011;6518;50.930;5.344;2023-07-31T04:07:00;7.55;;;3.85;;
12900;SDS011;6518;50.930;5.344;2023-07-31T04:09:27;6.30;;;3.83;;
12900;SDS011;6518;50.930;5.344;2023-07-31T04:11:54;6.90;;;3.90;;
12900;SDS011;6518;50.930;5.344;2023-07-31T04:14:21;8.25;;;4.30;;
12900;SDS011;6518;50.930;5.344;2023-07-31T04:16:49;6.93;;;3.72;;
12900;SDS011;6518;50.930;5.344;2023-07-31T04:19:17;9.65;;;4.18;;
12900;SDS011;6518;50.930;5.344;2023-07-31T04:21:44;7.55;;;4.50;;
12900;SDS011;6518;50.930;5.344;2023-07-31T04:24:11;5.82;;;4.00;;
12900;SDS011;6518;50.930;5.344;2023-07-31T04:26:38;7.95;;;4.00;;
12900;SDS011;6518;50.930;5.344;2023-07-31T04:29:05;7.70;;;4.05;;
12900;SDS011;6518;50.930;5.344;2023-07-31T04:31:33;7.45;;;4.10;;
12900;SDS011;6518;50.930;5.344;2023-07-31T04:34:01;5.85;;;3.90;;
12900;SDS011;6518;50.930;5.344;2023-07-31T04:36:28;8.45;;;4.22;;
12900;SDS011;6518;50.930;5.344;2023-07-31T04:38:55;7.63;;;4.00;;
12900;SDS011;6518;50.930;5.344;2023-07-31T04:41:22;5.90;;;3.80;;
12900;SDS011;6518;50.930;5.344;2023-07-31T04:43:49;8.50;;;4.20;;
12900;SDS011;6518;50.930;5.344;2023-07-31T04:46:17;6.68;;;3.95;;
12900;SDS011;6518;50.930;5.344;2023-07-31T04:48:44;5.82;;;3.97;;
12900;SDS011;6518;50.930;5.344;2023-07-31T04:51:12;6.65;;;3.70;;
12900;SDS011;6518;50.930;5.344;2023-07-31T04:53:40;8.07;;;4.53;;
12900;SDS011;6518;50.930;5.344;2023-07-31T04:56:08;7.47;;;3.95;;
12900;SDS011;6518;50.930;5.344;2023-07-31T04:58:35;6.60;;;3.90;;
12900;SDS011;6518;50.930;5.344;2023-07-31T05:01:04;7.97;;;4.32;;
12900;SDS011;6518;50.930;5.344;2023-07-31T05:03:31;10.13;;;3.88;;
12900;SDS011;6518;50.930;5.344;2023-07-31T05:05:58;6.57;;;3.80;;
12900;SDS011;6518;50.930;5.344;2023-07-31T05:08:26;8.13;;;4.07;;
12900;SDS011;6518;50.930;5.344;2023-07-31T05:10:53;8.00;;;4.43;;
12900;SDS011;6518;50.930;5.344;2023-07-31T05:13:21;8.38;;;4.15;;
12900;SDS011;6518;50.930;5.344;2023-07-31T05:15:48;7.40;;;4.07;;
12900;SDS011;6518;50.930;5.344;2023-07-31T05:18:15;7.90;;;4.07;;
12900;SDS011;6518;50.930;5.344;2023-07-31T05:20:42;7.95;;;4.35;;
12900;SDS011;6518;50.930;5.344;2023-07-31T05:23:10;8.88;;;4.25;;
12900;SDS011;6518;50.930;5.344;2023-07-31T05:25:38;6.55;;;3.92;;
12900;SDS011;6518;50.930;5.344;2023-07-31T05:28:05;10.63;;;3.75;;
12900;SDS011;6518;50.930;5.344;2023-07-31T05:30:32;6.85;;;4.05;;
12900;SDS011;6518;50.930;5.344;2023-07-31T05:32:59;9.50;;;4.47;;
12900;SDS011;6518;50.930;5.344;2023-07-31T05:35:26;7.15;;;3.63;;
12900;SDS011;6518;50.930;5.344;2023-07-31T05:37:53;5.72;;;3.42;;
12900;SDS011;6518;50.930;5.344;2023-07-31T05:40:19;8.15;;;4.20;;
12900;SDS011;6518;50.930;5.344;2023-07-31T05:42:48;6.45;;;3.97;;
12900;SDS011;6518;50.930;5.344;2023-07-31T05:45:15;5.95;;;3.90;;
12900;SDS011;6518;50.930;5.344;2023-07-31T05:47:42;8.18;;;4.05;;
12900;SDS011;6518;50.930;5.344;2023-07-31T05:50:09;8.60;;;3.90;;
12900;SDS011;6518;50.930;5.344;2023-07-31T05:52:36;7.35;;;3.72;;
12900;SDS011;6518;50.930;5.344;2023-07-31T05:55:03;7.90;;;3.60;;
12900;SDS011;6518;50.930;5.344;2023-07-31T05:57:30;7.97;;;4.10;;
12900;SDS011;6518;50.930;5.344;2023-07-31T05:59:58;8.05;;;4.28;;
12900;SDS011;6518;50.930;5.344;2023-07-31T06:02:25;9.05;;;4.40;;
12900;SDS011;6518;50.930;5.344;2023-07-31T06:04:52;8.00;;;3.60;;
12900;SDS011;6518;50.930;5.344;2023-07-31T06:07:19;9.05;;;3.95;;
12900;SDS011;6518;50.930;5.344;2023-07-31T06:09:46;7.25;;;3.65;;
12900;SDS011;6518;50.930;5.344;2023-07-31T06:12:14;5.07;;;3.50;;
12900;SDS011;6518;50.930;5.344;2023-07-31T06:14:43;6.53;;;3.60;;
12900;SDS011;6518;50.930;5.344;2023-07-31T06:17:12;6.28;;;3.60;;
12900;SDS011;6518;50.930;5.344;2023-07-31T06:19:39;9.27;;;3.63;;
12900;SDS011;6518;50.930;5.344;2023-07-31T06:22:06;5.35;;;3.50;;
12900;SDS011;6518;50.930;5.344;2023-07-31T06:24:33;6.03;;;3.45;;
12900;SDS011;6518;50.930;5.344;2023-07-31T06:27:00;7.25;;;3.15;;
12900;SDS011;6518;50.930;5.344;2023-07-31T06:29:29;6.78;;;3.40;;
12900;SDS011;6518;50.930;5.344;2023-07-31T06:31:56;4.97;;;3.47;;
12900;SDS011;6518;50.930;5.344;2023-07-31T06:34:24;10.48;;;3.95;;
12900;SDS011;6518;50.930;5.344;2023-07-31T06:36:51;7.80;;;3.45;;
12900;SDS011;6518;50.930;5.344;2023-07-31T06:39:18;6.88;;;3.58;;
12900;SDS011;6518;50.930;5.344;2023-07-31T06:41:45;6.85;;;3.53;;
12900;SDS011;6518;50.930;5.344;2023-07-31T06:44:12;8.23;;;3.53;;
12900;SDS011;6518;50.930;5.344;2023-07-31T06:46:39;6.20;;;3.83;;
12900;SDS011;6518;50.930;5.344;2023-07-31T06:49:06;8.55;;;4.10;;
12900;SDS011;6518;50.930;5.344;2023-07-31T06:51:34;6.82;;;3.83;;
12900;SDS011;6518;50.930;5.344;2023-07-31T06:54:03;8.98;;;3.70;;
12900;SDS011;6518;50.930;5.344;2023-07-31T06:56:30;6.03;;;3.58;;
12900;SDS011;6518;50.930;5.344;2023-07-31T06:59:00;9.60;;;4.05;;
12900;SDS011;6518;50.930;5.344;2023-07-31T07:01:27;7.93;;;4.45;;
12900;SDS011;6518;50.930;5.344;2023-07-31T07:03:55;6.97;;;3.83;;
12900;SDS011;6518;50.930;5.344;2023-07-31T07:06:22;7.47;;;3.70;;
12900;SDS011;6518;50.930;5.344;2023-07-31T07:08:51;5.63;;;3.40;;
12900;SDS011;6518;50.930;5.344;2023-07-31T07:11:18;8.27;;;3.80;;
12900;SDS011;6518;50.930;5.344;2023-07-31T07:13:45;5.63;;;3.42;;
12900;SDS011;6518;50.930;5.344;2023-07-31T07:16:11;7.20;;;3.42;;
12900;SDS011;6518;50.930;5.344;2023-07-31T07:18:38;6.25;;;3.40;;
12900;SDS011;6518;50.930;5.344;2023-07-31T07:21:06;8.55;;;4.40;;
12900;SDS011;6518;50.930;5.344;2023-07-31T07:23:33;6.32;;;3.63;;
12900;SDS011;6518;50.930;5.344;2023-07-31T07:26:01;7.72;;;3.63;;
12900;SDS011;6518;50.930;5.344;2023-07-31T07:28:28;5.47;;;3.50;;
12900;SDS011;6518;50.930;5.344;2023-07-31T07:30:55;6.15;;;3.40;;
12900;SDS011;6518;50.930;5.344;2023-07-31T07:33:23;10.73;;;3.75;;
12900;SDS011;6518;50.930;5.344;2023-07-31T07:35:50;7.45;;;3.63;;
12900;SDS011;6518;50.930;5.344;2023-07-31T07:38:17;9.18;;;3.35;;
12900;SDS011;6518;50.930;5.344;2023-07-31T07:40:45;8.05;;;4.07;;
12900;SDS011;6518;50.930;5.344;2023-07-31T07:43:16;11.73;;;3.75;;
12900;SDS011;6518;50.930;5.344;2023-07-31T07:45:43;6.72;;;3.50;;
12900;SDS011;6518;50.930;5.344;2023-07-31T07:48:10;5.25;;;3.38;;
12900;SDS011;6518;50.930;5.344;2023-07-31T07:50:38;5.72;;;3.00;;
12900;SDS011;6518;50.930;5.344;2023-07-31T07:53:05;7.82;;;3.60;;
12900;SDS011;6518;50.930;5.344;2023-07-31T07:55:31;6.72;;;3.05;;
12900;SDS011;6518;50.930;5.344;2023-07-31T07:57:58;6.80;;;3.80;;
12900;SDS011;6518;50.930;5.344;2023-07-31T08:00:27;6.32;;;3.10;;
12900;SDS011;6518;50.930;5.344;2023-07-31T08:02:54;6.50;;;3.33;;
12900;SDS011;6518;50.930;5.344;2023-07-31T08:05:22;5.82;;;3.22;;
12900;SDS011;6518;50.930;5.344;2023-07-31T08:07:49;5.22;;;3.20;;
12900;SDS011;6518;50.930;5.344;2023-07-31T08:10:16;8.18;;;3.10;;
12900;SDS011;6518;50.930;5.344;2023-07-31T08:12:43;8.40;;;3.92;;
12900;SDS011;6518;50.930;5.344;2023-07-31T08:15:10;5.85;;;3.42;;
12900;SDS011;6518;50.930;5.344;2023-07-31T08:17:38;11.52;;;3.45;;
12900;SDS011;6518;50.930;5.344;2023-07-31T08:20:06;5.72;;;3.40;;
12900;SDS011;6518;50.930;5.344;2023-07-31T08:22:34;5.72;;;3.25;;
12900;SDS011;6518;50.930;5.344;2023-07-31T08:25:01;6.68;;;3.10;;
12900;SDS011;6518;50.930;5.344;2023-07-31T08:27:28;6.40;;;3.40;;
12900;SDS011;6518;50.930;5.344;2023-07-31T08:29:55;7.13;;;3.53;;
12900;SDS011;6518;50.930;5.344;2023-07-31T08:32:22;4.88;;;3.20;;
12900;SDS011;6518;50.930;5.344;2023-07-31T08:34:50;6.10;;;3.38;;
12900;SDS011;6518;50.930;5.344;2023-07-31T08:37:17;5.43;;;3.67;;
12900;SDS011;6518;50.930;5.344;2023-07-31T08:39:44;6.68;;;3.38;;
12900;SDS011;6518;50.930;5.344;2023-07-31T08:42:11;5.05;;;3.53;;
12900;SDS011;6518;50.930;5.344;2023-07-31T08:44:38;5.70;;;3.47;;
12900;SDS011;6518;50.930;5.344;2023-07-31T08:47:06;7.50;;;3.40;;
12900;SDS011;6518;50.930;5.344;2023-07-31T08:49:33;9.05;;;3.60;;
12900;SDS011;6518;50.930;5.344;2023-07-31T08:52:04;8.10;;;3.72;;
12900;SDS011;6518;50.930;5.344;2023-07-31T08:54:33;4.75;;;3.08;;
12900;SDS011;6518;50.930;5.344;2023-07-31T08:57:00;7.53;;;3.78;;
12900;SDS011;6518;50.930;5.344;2023-07-31T08:59:28;7.45;;;3.75;;
12900;SDS011;6518;50.930;5.344;2023-07-31T09:01:57;6.00;;;3.28;;
12900;SDS011;6518;50.930;5.344;2023-07-31T09:04:29;6.28;;;3.22;;
12900;SDS011;6518;50.930;5.344;2023-07-31T09:06:59;7.22;;;3.75;;
12900;SDS011;6518;50.930;5.344;2023-07-31T09:09:30;6.57;;;3.47;;
12900;SDS011;6518;50.930;5.344;2023-07-31T09:11:57;8.50;;;3.60;;
12900;SDS011;6518;50.930;5.344;2023-07-31T09:14:25;5.18;;;3.00;;
12900;SDS011;6518;50.930;5.344;2023-07-31T09:16:53;5.10;;;2.88;;
12900;SDS011;6518;50.930;5.344;2023-07-31T09:19:32;5.13;;;3.28;;
12900;SDS011;6518;50.930;5.344;2023-07-31T09:22:02;4.22;;;2.75;;
12900;SDS011;6518;50.930;5.344;2023-07-31T09:24:32;5.38;;;2.50;;
12900;SDS011;6518;50.930;5.344;2023-07-31T09:27:00;6.43;;;2.80;;
12900;SDS011;6518;50.930;5.344;2023-07-31T09:29:28;2.72;;;2.35;;
12900;SDS011;6518;50.930;5.344;2023-07-31T09:31:56;4.35;;;2.38;;
12900;SDS011;6518;50.930;5.344;2023-07-31T09:34:28;5.57;;;2.28;;
12900;SDS011;6518;50.930;5.344;2023-07-31T09:36:57;3.15;;;2.25;;
12900;SDS011;6518;50.930;5.344;2023-07-31T09:39:27;4.65;;;2.20;;
12900;SDS011;6518;50.930;5.344;2023-07-31T09:41:57;2.85;;;2.05;;
12900;SDS011;6518;50.930;5.344;2023-07-31T09:44:37;2.72;;;1.77;;
12900;SDS011;6518;50.930;5.344;2023-07-31T09:47:06;2.85;;;1.95;;
12900;SDS011;6518;50.930;5.344;2023-07-31T09:49:33;2.70;;;1.80;;
12900;SDS011;6518;50.930;5.344;2023-07-31T09:52:00;3.22;;;2.30;;
12900;SDS011;6518;50.930;5.344;2023-07-31T09:54:39;5.00;;;2.10;;
12900;SDS011;6518;50.930;5.344;2023-07-31T09:57:06;2.42;;;1.88;;
12900;SDS011;6518;50.930;5.344;2023-07-31T09:59:35;2.53;;;1.80;;
12900;SDS011;6518;50.930;5.344;2023-07-31T10:02:02;4.90;;;2.17;;
12900;SDS011;6518;50.930;5.344;2023-07-31T10:04:29;2.38;;;1.70;;
12900;SDS011;6518;50.930;5.344;2023-07-31T10:06:57;2.65;;;1.90;;
12900;SDS011;6518;50.930;5.344;2023-07-31T10:09:27;3.35;;;1.90;;
12900;SDS011;6518;50.930;5.344;2023-07-31T10:11:59;3.25;;;1.90;;
12900;SDS011;6518;50.930;5.344;2023-07-31T10:14:26;3.53;;;2.30;;
12900;SDS011;6518;50.930;5.344;2023-07-31T10:16:54;4.88;;;2.20;;
12900;SDS011;6518;50.930;5.344;2023-07-31T10:19:22;4.35;;;2.35;;
12900;SDS011;6518;50.930;5.344;2023-07-31T10:21:49;4.18;;;2.40;;
12900;SDS011;6518;50.930;5.344;2023-07-31T10:24:17;3.80;;;2.20;;
12900;SDS011;6518;50.930;5.344;2023-07-31T10:26:45;4.97;;;2.42;;
12900;SDS011;6518;50.930;5.344;2023-07-31T10:29:16;4.28;;;2.63;;
12900;SDS011;6518;50.930;5.344;2023-07-31T10:31:46;3.22;;;2.40;;
12900;SDS011;6518;50.930;5.344;2023-07-31T10:34:14;8.10;;;2.92;;
12900;SDS011;6518;50.930;5.344;2023-07-31T10:36:43;5.53;;;2.90;;
12900;SDS011;6518;50.930;5.344;2023-07-31T10:39:33;4.95;;;3.17;;
12900;SDS011;6518;50.930;5.344;2023-07-31T10:42:09;6.60;;;3.15;;
12900;SDS011;6518;50.930;5.344;2023-07-31T10:44:38;7.85;;;3.40;;
12900;SDS011;6518;50.930;5.344;2023-07-31T10:47:16;5.95;;;3.58;;
12900;SDS011;6518;50.930;5.344;2023-07-31T10:49:45;6.38;;;3.60;;
12900;SDS011;6518;50.930;5.344;2023-07-31T10:52:21;6.10;;;3.50;;
12900;SDS011;6518;50.930;5.344;2023-07-31T10:54:51;6.68;;;3.90;;
12900;SDS011;6518;50.930;5.344;2023-07-31T10:57:40;5.93;;;3.72;;
12900;SDS011;6518;50.930;5.344;2023-07-31T11:00:19;8.05;;;4.47;;
12900;SDS011;6518;50.930;5.344;2023-07-31T11:03:00;6.85;;;3.53;;
12900;SDS011;6518;50.930;5.344;2023-07-31T11:08:28;5.97;;;4.00;;
12900;SDS011;6518;50.930;5.344;2023-07-31T11:11:05;7.75;;;3.92;;
12900;SDS011;6518;50.930;5.344;2023-07-31T11:13:39;6.28;;;3.92;;
12900;SDS011;6518;50.930;5.344;2023-07-31T11:16:08;5.13;;;3.90;;
12900;SDS011;6518;50.930;5.344;2023-07-31T11:18:38;5.55;;;3.85;;
12900;SDS011;6518;50.930;5.344;2023-07-31T11:21:05;7.65;;;4.22;;
12900;SDS011;6518;50.930;5.344;2023-07-31T11:23:32;9.02;;;3.45;;
12900;SDS011;6518;50.930;5.344;2023-07-31T11:26:00;4.78;;;3.58;;
12900;SDS011;6518;50.930;5.344;2023-07-31T11:28:31;6.25;;;3.83;;
12900;SDS011;6518;50.930;5.344;2023-07-31T11:31:00;5.40;;;3.22;;
12900;SDS011;6518;50.930;5.344;2023-07-31T11:33:29;5.72;;;3.83;;
12900;SDS011;6518;50.930;5.344;2023-07-31T11:35:57;6.30;;;3.63;;
12900;SDS011;6518;50.930;5.344;2023-07-31T11:38:24;5.30;;;3.67;;
12900;SDS011;6518;50.930;5.344;2023-07-31T11:40:52;5.75;;;3.55;;
12900;SDS011;6518;50.930;5.344;2023-07-31T11:43:19;7.25;;;3.63;;
12900;SDS011;6518;50.930;5.344;2023-07-31T11:45:47;8.65;;;3.80;;
12900;SDS011;6518;50.930;5.344;2023-07-31T11:48:18;5.75;;;3.45;;
12900;SDS011;6518;50.930;5.344;2023-07-31T11:50:48;6.40;;;3.58;;
12900;SDS011;6518;50.930;5.344;2023-07-31T11:53:16;8.80;;;4.05;;
12900;SDS011;6518;50.930;5.344;2023-07-31T11:55:47;5.13;;;3.90;;
12900;SDS011;6518;50.930;5.344;2023-07-31T11:58:14;7.38;;;4.35;;
12900;SDS011;6518;50.930;5.344;2023-07-31T12:00:42;5.90;;;3.72;;
12900;SDS011;6518;50.930;5.344;2023-07-31T12:03:10;8.05;;;4.15;;
12900;SDS011;6518;50.930;5.344;2023-07-31T12:05:37;6.75;;;4.07;;
12900;SDS011;6518;50.930;5.344;2023-07-31T12:08:09;6.20;;;3.67;;
12900;SDS011;6518;50.930;5.344;2023-07-31T12:10:38;7.30;;;4.10;;
12900;SDS011;6518;50.930;5.344;2023-07-31T12:13:08;6.20;;;3.83;;
12900;SDS011;6518;50.930;5.344;2023-07-31T12:15:39;8.77;;;4.00;;
12900;SDS011;6518;50.930;5.344;2023-07-31T12:18:08;6.63;;;3.78;;
12900;SDS011;6518;50.930;5.344;2023-07-31T12:20:39;6.47;;;3.50;;
12900;SDS011;6518;50.930;5.344;2023-07-31T12:23:15;6.20;;;3.80;;
12900;SDS011;6518;50.930;5.344;2023-07-31T12:25:43;7.65;;;3.95;;
12900;SDS011;6518;50.930;5.344;2023-07-31T12:28:10;6.22;;;3.83;;
12900;SDS011;6518;50.930;5.344;2023-07-31T12:30:38;7.15;;;3.50;;
12900;SDS011;6518;50.930;5.344;2023-07-31T12:33:06;8.95;;;4.18;;
12900;SDS011;6518;50.930;5.344;2023-07-31T12:35:40;5.75;;;3.70;;
12900;SDS011;6518;50.930;5.344;2023-07-31T12:38:11;6.65;;;3.53;;
12900;SDS011;6518;50.930;5.344;2023-07-31T12:40:40;4.20;;;3.47;;
12900;SDS011;6518;50.930;5.344;2023-07-31T12:43:07;7.05;;;3.72;;
12900;SDS011;6518;50.930;5.344;2023-07-31T12:45:35;6.38;;;3.95;;
12900;SDS011;6518;50.930;5.344;2023-07-31T12:48:01;6.20;;;3.50;;
12900;SDS011;6518;50.930;5.344;2023-07-31T12:50:29;6.63;;;3.40;;
12900;SDS011;6518;50.930;5.344;2023-07-31T12:52:56;6.30;;;3.67;;
12900;SDS011;6518;50.930;5.344;2023-07-31T12:55:23;5.97;;;3.45;;
12900;SDS011;6518;50.930;5.344;2023-07-31T12:57:51;5.63;;;3.50;;
12900;SDS011;6518;50.930;5.344;2023-07-31T13:00:18;5.22;;;3.45;;
12900;SDS011;6518;50.930;5.344;2023-07-31T13:02:45;6.22;;;3.45;;
12900;SDS011;6518;50.930;5.344;2023-07-31T13:05:12;7.10;;;4.03;;
12900;SDS011;6518;50.930;5.344;2023-07-31T13:07:39;7.13;;;4.13;;
12900;SDS011;6518;50.930;5.344;2023-07-31T13:10:07;7.55;;;3.75;;
12900;SDS011;6518;50.930;5.344;2023-07-31T13:12:34;6.88;;;4.40;;
12900;SDS011;6518;50.930;5.344;2023-07-31T13:15:03;7.45;;;3.53;;
12900;SDS011;6518;50.930;5.344;2023-07-31T13:17:30;8.13;;;4.47;;
12900;SDS011;6518;50.930;5.344;2023-07-31T13:19:57;7.38;;;4.30;;
12900;SDS011;6518;50.930;5.344;2023-07-31T13:22:24;8.05;;;4.30;;
12900;SDS011;6518;50.930;5.344;2023-07-31T13:24:51;5.65;;;4.18;;
12900;SDS011;6518;50.930;5.344;2023-07-31T13:27:18;10.23;;;4.70;;
12900;SDS011;6518;50.930;5.344;2023-07-31T13:29:46;7.47;;;4.30;;
12900;SDS011;6518;50.930;5.344;2023-07-31T13:32:15;6.32;;;4.25;;
12900;SDS011;6518;50.930;5.344;2023-07-31T13:34:42;7.25;;;4.30;;
12900;SDS011;6518;50.930;5.344;2023-07-31T13:37:09;8.55;;;4.30;;
12900;SDS011;6518;50.930;5.344;2023-07-31T13:39:36;7.60;;;4.53;;
12900;SDS011;6518;50.930;5.344;2023-07-31T13:42:04;7.57;;;4.38;;
12900;SDS011;6518;50.930;5.344;2023-07-31T13:44:31;8.35;;;4.22;;
12900;SDS011;6518;50.930;5.344;2023-07-31T13:46:59;7.07;;;4.75;;
12900;SDS011;6518;50.930;5.344;2023-07-31T13:49:28;7.30;;;3.80;;
12900;SDS011;6518;50.930;5.344;2023-07-31T13:51:55;6.47;;;4.47;;
12900;SDS011;6518;50.930;5.344;2023-07-31T13:54:22;8.40;;;4.18;;
12900;SDS011;6518;50.930;5.344;2023-07-31T13:56:50;8.48;;;4.22;;
12900;SDS011;6518;50.930;5.344;2023-07-31T13:59:18;6.30;;;4.07;;
12900;SDS011;6518;50.930;5.344;2023-07-31T14:01:45;7.70;;;4.30;;
12900;SDS011;6518;50.930;5.344;2023-07-31T14:04:12;8.65;;;4.45;;
12900;SDS011;6518;50.930;5.344;2023-07-31T14:06:41;7.88;;;3.85;;
12900;SDS011;6518;50.930;5.344;2023-07-31T14:09:08;6.68;;;3.90;;
12900;SDS011;6518;50.930;5.344;2023-07-31T14:11:35;7.50;;;3.92;;
12900;SDS011;6518;50.930;5.344;2023-07-31T14:14:02;10.95;;;4.47;;
12900;SDS011;6518;50.930;5.344;2023-07-31T14:16:29;7.35;;;4.00;;
12900;SDS011;6518;50.930;5.344;2023-07-31T14:18:57;9.65;;;4.20;;
12900;SDS011;6518;50.930;5.344;2023-07-31T14:21:24;8.98;;;3.90;;
12900;SDS011;6518;50.930;5.344;2023-07-31T14:23:53;7.05;;;3.72;;
12900;SDS011;6518;50.930;5.344;2023-07-31T14:26:20;5.80;;;3.67;;
12900;SDS011;6518;50.930;5.344;2023-07-31T14:28:47;7.97;;;3.80;;
12900;SDS011;6518;50.930;5.344;2023-07-31T14:31:14;5.32;;;3.50;;
12900;SDS011;6518;50.930;5.344;2023-07-31T14:33:41;6.45;;;3.70;;
12900;SDS011;6518;50.930;5.344;2023-07-31T14:36:08;8.23;;;3.63;;
12900;SDS011;6518;50.930;5.344;2023-07-31T14:38:35;5.07;;;3.30;;
12900;SDS011;6518;50.930;5.344;2023-07-31T14:41:03;4.72;;;2.60;;
12900;SDS011;6518;50.930;5.344;2023-07-31T14:43:30;4.32;;;2.70;;
12900;SDS011;6518;50.930;5.344;2023-07-31T14:45:57;4.30;;;2.33;;
12900;SDS011;6518;50.930;5.344;2023-07-31T14:48:25;6.07;;;2.80;;
12900;SDS011;6518;50.930;5.344;2023-07-31T14:50:52;4.47;;;3.00;;
12900;SDS011;6518;50.930;5.344;2023-07-31T14:53:19;5.03;;;2.65;;
12900;SDS011;6518;50.930;5.344;2023-07-31T14:55:47;3.83;;;2.50;;
12900;SDS011;6518;50.930;5.344;2023-07-31T14:58:15;3.90;;;2.78;;
12900;SDS011;6518;50.930;5.344;2023-07-31T15:00:43;6.40;;;2.95;;
12900;SDS011;6518;50.930;5.344;2023-07-31T15:03:10;3.22;;;2.38;;
12900;SDS011;6518;50.930;5.344;2023-07-31T15:05:36;3.92;;;2.50;;
12900;SDS011;6518;50.930;5.344;2023-07-31T15:08:03;4.85;;;2.53;;